sensor_id;sensor_type;location;lat;lon;timestamp;P1;durP1;ratioP1;P2;durP2;ratioP2
34497;SDS011;20744;50.938;7.286;2023-03-01T00:00:02;18.20;;;9.27;;
34497;SDS011;20744;50.938;7.286;2023-03-01T00:02:29;20.75;;;9.23;;
34497;SDS011;20744;50.938;7.286;2023-03-01T00:04:56;30.40;;;10.60;;
34497;SDS011;20744;50.938;7.286;2023-03-01T00:07:24;25.00;;;10.70;;
34497;SDS011;20744;50.938;7.286;2023-03-01T00:09:51;37.78;;;12.75;;
34497;SDS011;20744;50.938;7.286;2023-03-01T00:12:19;35.70;;;11.85;;
34497;SDS011;20744;50.938;7.286;2023-03-01T00:14:47;27.67;;;10.63;;
34497;SDS011;20744;50.938;7.286;2023-03-01T00:17:15;23.17;;;10.82;;
34497;SDS011;20744;50.938;7.286;2023-03-01T00:19:42;30.05;;;12.20;;
34497;SDS011;20744;50.938;7.286;2023-03-01T00:22:09;25.85;;;11.02;;
34497;SDS011;20744;50.938;7.286;2023-03-01T00:24:36;20.10;;;9.63;;
34497;SDS011;20744;50.938;7.286;2023-03-01T00:27:04;19.42;;;9.98;;
34497;SDS011;20744;50.938;7.286;2023-03-01T00:29:31;21.63;;;10.50;;
34497;SDS011;20744;50.938;7.286;2023-03-01T00:32:00;20.55;;;10.48;;
34497;SDS011;20744;50.938;7.286;2023-03-01T00:34:27;25.83;;;11.10;;
34497;SDS011;20744;50.938;7.286;2023-03-01T00:36:54;24.05;;;11.45;;
34497;SDS011;20744;50.938;7.286;2023-03-01T00:39:30;31.23;;;13.65;;
34497;SDS011;20744;50.938;7.286;2023-03-01T00:41:58;33.42;;;13.35;;
34497;SDS011;20744;50.938;7.286;2023-03-01T00:44:25;31.45;;;12.07;;
34497;SDS011;20744;50.938;7.286;2023-03-01T00:46:53;22.08;;;11.10;;
34497;SDS011;20744;50.938;7.286;2023-03-01T00:49:21;23.42;;;11.82;;
34497;SDS011;20744;50.938;7.286;2023-03-01T00:51:52;21.30;;;10.55;;
34497;SDS011;20744;50.938;7.286;2023-03-01T00:54:19;23.33;;;11.13;;
34497;SDS011;20744;50.938;7.286;2023-03-01T00:56:47;28.25;;;11.07;;
34497;SDS011;20744;50.938;7.286;2023-03-01T00:59:14;25.65;;;11.35;;
34497;SDS011;20744;50.938;7.286;2023-03-01T01:01:41;25.40;;;10.68;;
34497;SDS011;20744;50.938;7.286;2023-03-01T01:04:09;27.17;;;11.88;;
34497;SDS011;20744;50.938;7.286;2023-03-01T01:06:39;32.78;;;12.38;;
34497;SDS011;20744;50.938;7.286;2023-03-01T01:09:07;36.28;;;13.18;;
34497;SDS011;20744;50.938;7.286;2023-03-01T01:11:42;30.25;;;12.65;;
34497;SDS011;20744;50.938;7.286;2023-03-01T01:14:09;21.80;;;10.52;;
34497;SDS011;20744;50.938;7.286;2023-03-01T01:16:37;18.50;;;9.10;;
34497;SDS011;20744;50.938;7.286;2023-03-01T01:19:04;18.88;;;10.05;;
34497;SDS011;20744;50.938;7.286;2023-03-01T01:21:31;21.85;;;10.32;;
34497;SDS011;20744;50.938;7.286;2023-03-01T01:24:00;25.95;;;10.85;;
34497;SDS011;20744;50.938;7.286;2023-03-01T01:26:30;22.27;;;10.90;;
34497;SDS011;20744;50.938;7.286;2023-03-01T01:28:57;18.20;;;8.98;;
34497;SDS011;20744;50.938;7.286;2023-03-01T01:31:25;14.07;;;8.02;;
34497;SDS011;20744;50.938;7.286;2023-03-01T01:33:53;14.80;;;7.38;;
34497;SDS011;20744;50.938;7.286;2023-03-01T01:36:20;14.45;;;8.02;;
34497;SDS011;20744;50.938;7.286;2023-03-01T01:38:48;18.52;;;8.70;;
34497;SDS011;20744;50.938;7.286;2023-03-01T01:41:17;14.90;;;8.45;;
34497;SDS011;20744;50.938;7.286;2023-03-01T01:43:44;18.42;;;9.73;;
34497;SDS011;20744;50.938;7.286;2023-03-01T01:46:15;16.40;;;9.23;;
34497;SDS011;20744;50.938;7.286;2023-03-01T01:48:44;17.38;;;9.15;;
34497;SDS011;20744;50.938;7.286;2023-03-01T01:51:14;20.63;;;9.80;;
34497;SDS011;20744;50.938;7.286;2023-03-01T01:53:44;18.77;;;8.82;;
34497;SDS011;20744;50.938;7.286;2023-03-01T01:56:12;20.08;;;9.65;;
34497;SDS011;20744;50.938;7.286;2023-03-01T01:58:42;21.08;;;10.35;;
34497;SDS011;20744;50.938;7.286;2023-03-01T02:01:10;22.98;;;10.35;;
34497;SDS011;20744;50.938;7.286;2023-03-01T02:03:38;21.30;;;10.48;;
34497;SDS011;20744;50.938;7.286;2023-03-01T02:06:10;20.50;;;9.52;;
34497;SDS011;20744;50.938;7.286;2023-03-01T02:08:40;18.25;;;9.25;;
34497;SDS011;20744;50.938;7.286;2023-03-01T02:11:07;18.27;;;9.70;;
34497;SDS011;20744;50.938;7.286;2023-03-01T02:13:35;16.92;;;9.43;;
34497;SDS011;20744;50.938;7.286;2023-03-01T02:16:05;18.15;;;9.65;;
34497;SDS011;20744;50.938;7.286;2023-03-01T02:18:34;16.75;;;9.32;;
34497;SDS011;20744;50.938;7.286;2023-03-01T02:21:05;16.50;;;9.77;;
34497;SDS011;20744;50.938;7.286;2023-03-01T02:23:33;18.98;;;9.25;;
34497;SDS011;20744;50.938;7.286;2023-03-01T02:26:03;15.38;;;8.93;;
34497;SDS011;20744;50.938;7.286;2023-03-01T02:28:34;16.17;;;9.15;;
34497;SDS011;20744;50.938;7.286;2023-03-01T02:31:03;16.50;;;9.13;;
34497;SDS011;20744;50.938;7.286;2023-03-01T02:33:49;16.25;;;8.20;;
34497;SDS011;20744;50.938;7.286;2023-03-01T02:36:17;14.20;;;8.30;;
34497;SDS011;20744;50.938;7.286;2023-03-01T02:38:45;16.08;;;8.88;;
34497;SDS011;20744;50.938;7.286;2023-03-01T02:41:14;15.88;;;8.98;;
34497;SDS011;20744;50.938;7.286;2023-03-01T02:43:44;15.23;;;8.50;;
34497;SDS011;20744;50.938;7.286;2023-03-01T02:46:13;22.35;;;9.30;;
34497;SDS011;20744;50.938;7.286;2023-03-01T02:48:42;18.10;;;8.48;;
34497;SDS011;20744;50.938;7.286;2023-03-01T02:51:11;17.88;;;8.77;;
34497;SDS011;20744;50.938;7.286;2023-03-01T02:53:41;18.40;;;8.85;;
34497;SDS011;20744;50.938;7.286;2023-03-01T02:56:12;16.67;;;8.93;;
34497;SDS011;20744;50.938;7.286;2023-03-01T02:58:40;15.95;;;8.68;;
34497;SDS011;20744;50.938;7.286;2023-03-01T03:01:12;14.75;;;8.68;;
34497;SDS011;20744;50.938;7.286;2023-03-01T03:03:40;16.92;;;8.55;;
34497;SDS011;20744;50.938;7.286;2023-03-01T03:06:08;14.35;;;8.63;;
34497;SDS011;20744;50.938;7.286;2023-03-01T03:08:35;14.05;;;8.73;;
34497;SDS011;20744;50.938;7.286;2023-03-01T03:11:03;14.30;;;8.13;;
34497;SDS011;20744;50.938;7.286;2023-03-01T03:13:30;14.25;;;8.27;;
34497;SDS011;20744;50.938;7.286;2023-03-01T03:15:57;18.48;;;9.35;;
34497;SDS011;20744;50.938;7.286;2023-03-01T03:18:26;14.63;;;8.80;;
34497;SDS011;20744;50.938;7.286;2023-03-01T03:20:53;16.58;;;9.10;;
34497;SDS011;20744;50.938;7.286;2023-03-01T03:23:21;19.95;;;9.60;;
34497;SDS011;20744;50.938;7.286;2023-03-01T03:25:49;15.65;;;9.25;;
34497;SDS011;20744;50.938;7.286;2023-03-01T03:28:16;15.85;;;9.68;;
34497;SDS011;20744;50.938;7.286;2023-03-01T03:30:44;19.92;;;9.90;;
34497;SDS011;20744;50.938;7.286;2023-03-01T03:33:12;23.02;;;9.50;;
34497;SDS011;20744;50.938;7.286;2023-03-01T03:35:42;15.40;;;10.20;;
34497;SDS011;20744;50.938;7.286;2023-03-01T03:38:10;17.88;;;9.38;;
34497;SDS011;20744;50.938;7.286;2023-03-01T03:40:42;21.35;;;10.13;;
34497;SDS011;20744;50.938;7.286;2023-03-01T03:43:11;18.55;;;9.68;;
34497;SDS011;20744;50.938;7.286;2023-03-01T03:45:38;18.90;;;9.50;;
34497;SDS011;20744;50.938;7.286;2023-03-01T03:48:06;17.02;;;8.90;;
34497;SDS011;20744;50.938;7.286;2023-03-01T03:50:34;16.08;;;9.60;;
34497;SDS011;20744;50.938;7.286;2023-03-01T03:53:03;18.60;;;10.05;;
34497;SDS011;20744;50.938;7.286;2023-03-01T03:55:32;19.52;;;10.25;;
34497;SDS011;20744;50.938;7.286;2023-03-01T03:58:00;20.17;;;11.50;;
34497;SDS011;20744;50.938;7.286;2023-03-01T04:00:31;22.10;;;10.75;;
34497;SDS011;20744;50.938;7.286;2023-03-01T04:02:59;19.45;;;11.85;;
34497;SDS011;20744;50.938;7.286;2023-03-01T04:05:27;19.90;;;11.20;;
34497;SDS011;20744;50.938;7.286;2023-03-01T04:07:54;18.40;;;11.18;;
34497;SDS011;20744;50.938;7.286;2023-03-01T04:10:34;18.35;;;10.65;;
34497;SDS011;20744;50.938;7.286;2023-03-01T04:13:02;18.70;;;10.60;;
34497;SDS011;20744;50.938;7.286;2023-03-01T04:15:29;19.60;;;9.90;;
34497;SDS011;20744;50.938;7.286;2023-03-01T04:17:57;14.07;;;8.90;;
34497;SDS011;20744;50.938;7.286;2023-03-01T04:20:27;21.33;;;10.02;;
34497;SDS011;20744;50.938;7.286;2023-03-01T04:22:56;16.13;;;9.32;;
34497;SDS011;20744;50.938;7.286;2023-03-01T04:25:24;20.60;;;9.45;;
34497;SDS011;20744;50.938;7.286;2023-03-01T04:27:52;16.05;;;9.32;;
34497;SDS011;20744;50.938;7.286;2023-03-01T04:30:20;16.40;;;9.68;;
34497;SDS011;20744;50.938;7.286;2023-03-01T04:32:50;17.77;;;10.57;;
34497;SDS011;20744;50.938;7.286;2023-03-01T04:35:17;17.02;;;9.55;;
34497;SDS011;20744;50.938;7.286;2023-03-01T04:37:45;16.23;;;9.50;;
34497;SDS011;20744;50.938;7.286;2023-03-01T04:40:13;16.35;;;9.80;;
34497;SDS011;20744;50.938;7.286;2023-03-01T04:42:42;20.10;;;10.55;;
34497;SDS011;20744;50.938;7.286;2023-03-01T04:45:10;17.40;;;9.82;;
34497;SDS011;20744;50.938;7.286;2023-03-01T04:47:39;16.35;;;9.50;;
34497;SDS011;20744;50.938;7.286;2023-03-01T04:50:08;22.83;;;10.63;;
34497;SDS011;20744;50.938;7.286;2023-03-01T04:52:35;18.45;;;9.68;;
34497;SDS011;20744;50.938;7.286;2023-03-01T04:55:03;18.02;;;10.10;;
34497;SDS011;20744;50.938;7.286;2023-03-01T04:57:30;16.15;;;10.50;;
34497;SDS011;20744;50.938;7.286;2023-03-01T04:59:58;17.38;;;10.57;;
34497;SDS011;20744;50.938;7.286;2023-03-01T05:02:26;18.83;;;10.38;;
34497;SDS011;20744;50.938;7.286;2023-03-01T05:04:54;18.10;;;9.15;;
34497;SDS011;20744;50.938;7.286;2023-03-01T05:07:22;17.65;;;10.40;;
34497;SDS011;20744;50.938;7.286;2023-03-01T05:09:51;18.25;;;10.25;;
34497;SDS011;20744;50.938;7.286;2023-03-01T05:12:19;19.08;;;11.27;;
34497;SDS011;20744;50.938;7.286;2023-03-01T05:14:46;16.67;;;10.27;;
34497;SDS011;20744;50.938;7.286;2023-03-01T05:17:13;17.33;;;10.18;;
34497;SDS011;20744;50.938;7.286;2023-03-01T05:19:42;18.50;;;10.35;;
34497;SDS011;20744;50.938;7.286;2023-03-01T05:22:11;18.35;;;9.82;;
34497;SDS011;20744;50.938;7.286;2023-03-01T05:24:38;16.60;;;9.90;;
34497;SDS011;20744;50.938;7.286;2023-03-01T05:27:05;17.83;;;10.18;;
34497;SDS011;20744;50.938;7.286;2023-03-01T05:29:33;17.60;;;10.23;;
34497;SDS011;20744;50.938;7.286;2023-03-01T05:32:01;19.67;;;10.52;;
34497;SDS011;20744;50.938;7.286;2023-03-01T05:34:29;21.63;;;10.25;;
34497;SDS011;20744;50.938;7.286;2023-03-01T05:36:58;16.30;;;9.95;;
34497;SDS011;20744;50.938;7.286;2023-03-01T05:39:27;18.92;;;10.20;;
34497;SDS011;20744;50.938;7.286;2023-03-01T05:41:55;16.13;;;9.98;;
34497;SDS011;20744;50.938;7.286;2023-03-01T05:44:22;23.95;;;10.95;;
34497;SDS011;20744;50.938;7.286;2023-03-01T05:46:50;21.48;;;10.50;;
34497;SDS011;20744;50.938;7.286;2023-03-01T05:49:18;23.02;;;10.80;;
34497;SDS011;20744;50.938;7.286;2023-03-01T05:51:47;18.70;;;10.60;;
34497;SDS011;20744;50.938;7.286;2023-03-01T05:54:16;21.30;;;11.10;;
34497;SDS011;20744;50.938;7.286;2023-03-01T05:56:43;22.40;;;10.93;;
34497;SDS011;20744;50.938;7.286;2023-03-01T05:59:11;25.95;;;11.77;;
34497;SDS011;20744;50.938;7.286;2023-03-01T06:01:38;21.40;;;11.98;;
34497;SDS011;20744;50.938;7.286;2023-03-01T06:04:06;21.98;;;10.73;;
34497;SDS011;20744;50.938;7.286;2023-03-01T06:06:33;20.48;;;10.45;;
34497;SDS011;20744;50.938;7.286;2023-03-01T06:09:02;19.63;;;11.63;;
34497;SDS011;20744;50.938;7.286;2023-03-01T06:11:31;21.98;;;12.27;;
34497;SDS011;20744;50.938;7.286;2023-03-01T06:14:00;20.42;;;11.60;;
34497;SDS011;20744;50.938;7.286;2023-03-01T06:16:27;22.92;;;12.90;;
34497;SDS011;20744;50.938;7.286;2023-03-01T06:18:54;22.35;;;11.57;;
34497;SDS011;20744;50.938;7.286;2023-03-01T06:21:21;20.52;;;11.52;;
34497;SDS011;20744;50.938;7.286;2023-03-01T06:23:49;21.50;;;12.30;;
34497;SDS011;20744;50.938;7.286;2023-03-01T06:26:16;26.60;;;11.50;;
34497;SDS011;20744;50.938;7.286;2023-03-01T06:28:45;22.23;;;11.32;;
34497;SDS011;20744;50.938;7.286;2023-03-01T06:31:12;19.90;;;12.07;;
34497;SDS011;20744;50.938;7.286;2023-03-01T06:33:40;19.02;;;10.90;;
34497;SDS011;20744;50.938;7.286;2023-03-01T06:36:07;20.17;;;11.95;;
34497;SDS011;20744;50.938;7.286;2023-03-01T06:38:35;20.65;;;11.80;;
34497;SDS011;20744;50.938;7.286;2023-03-01T06:41:03;18.75;;;10.95;;
34497;SDS011;20744;50.938;7.286;2023-03-01T06:43:30;32.38;;;11.60;;
34497;SDS011;20744;50.938;7.286;2023-03-01T06:45:58;21.10;;;12.60;;
34497;SDS011;20744;50.938;7.286;2023-03-01T06:48:26;20.25;;;10.82;;
34497;SDS011;20744;50.938;7.286;2023-03-01T06:50:53;18.25;;;10.88;;
34497;SDS011;20744;50.938;7.286;2023-03-01T06:53:20;19.33;;;10.60;;
34497;SDS011;20744;50.938;7.286;2023-03-01T06:55:53;19.70;;;11.02;;
34497;SDS011;20744;50.938;7.286;2023-03-01T06:58:20;21.40;;;11.90;;
34497;SDS011;20744;50.938;7.286;2023-03-01T07:00:47;24.52;;;12.50;;
34497;SDS011;20744;50.938;7.286;2023-03-01T07:03:16;21.63;;;12.27;;
34497;SDS011;20744;50.938;7.286;2023-03-01T07:05:43;24.23;;;12.88;;
34497;SDS011;20744;50.938;7.286;2023-03-01T07:08:11;22.55;;;12.48;;
34497;SDS011;20744;50.938;7.286;2023-03-01T07:10:38;23.10;;;12.50;;
34497;SDS011;20744;50.938;7.286;2023-03-01T07:13:05;22.48;;;12.82;;
34497;SDS011;20744;50.938;7.286;2023-03-01T07:15:33;21.85;;;12.02;;
34497;SDS011;20744;50.938;7.286;2023-03-01T07:18:00;28.40;;;11.55;;
34497;SDS011;20744;50.938;7.286;2023-03-01T07:20:29;31.67;;;12.65;;
34497;SDS011;20744;50.938;7.286;2023-03-01T07:22:56;23.15;;;11.68;;
34497;SDS011;20744;50.938;7.286;2023-03-01T07:25:24;22.08;;;11.23;;
34497;SDS011;20744;50.938;7.286;2023-03-01T07:27:51;23.80;;;11.32;;
34497;SDS011;20744;50.938;7.286;2023-03-01T07:30:19;24.30;;;11.48;;
34497;SDS011;20744;50.938;7.286;2023-03-01T07:32:46;19.27;;;11.07;;
34497;SDS011;20744;50.938;7.286;2023-03-01T07:35:13;26.92;;;11.80;;
34497;SDS011;20744;50.938;7.286;2023-03-01T07:37:42;26.65;;;11.75;;
34497;SDS011;20744;50.938;7.286;2023-03-01T07:40:10;24.48;;;12.27;;
34497;SDS011;20744;50.938;7.286;2023-03-01T07:42:37;24.33;;;13.70;;
34497;SDS011;20744;50.938;7.286;2023-03-01T07:45:05;23.90;;;12.07;;
34497;SDS011;20744;50.938;7.286;2023-03-01T07:47:33;25.83;;;13.00;;
34497;SDS011;20744;50.938;7.286;2023-03-01T07:50:00;23.75;;;12.88;;
34497;SDS011;20744;50.938;7.286;2023-03-01T07:52:27;24.50;;;11.98;;
34497;SDS011;20744;50.938;7.286;2023-03-01T07:54:57;20.25;;;11.57;;
34497;SDS011;20744;50.938;7.286;2023-03-01T07:57:24;26.13;;;12.80;;
34497;SDS011;20744;50.938;7.286;2023-03-01T07:59:52;21.38;;;11.77;;
34497;SDS011;20744;50.938;7.286;2023-03-01T08:02:19;24.42;;;11.43;;
34497;SDS011;20744;50.938;7.286;2023-03-01T08:04:46;23.70;;;12.13;;
34497;SDS011;20744;50.938;7.286;2023-03-01T08:07:13;35.75;;;12.15;;
34497;SDS011;20744;50.938;7.286;2023-03-01T08:09:40;26.67;;;11.77;;
34497;SDS011;20744;50.938;7.286;2023-03-01T08:12:09;20.40;;;11.88;;
34497;SDS011;20744;50.938;7.286;2023-03-01T08:14:36;21.95;;;12.15;;
34497;SDS011;20744;50.938;7.286;2023-03-01T08:17:03;24.88;;;11.60;;
34497;SDS011;20744;50.938;7.286;2023-03-01T08:19:31;26.30;;;11.88;;
34497;SDS011;20744;50.938;7.286;2023-03-01T08:21:59;20.92;;;11.57;;
34497;SDS011;20744;50.938;7.286;2023-03-01T08:24:26;19.48;;;11.55;;
34497;SDS011;20744;50.938;7.286;2023-03-01T08:26:54;23.42;;;10.77;;
34497;SDS011;20744;50.938;7.286;2023-03-01T08:29:23;23.33;;;11.27;;
34497;SDS011;20744;50.938;7.286;2023-03-01T08:31:50;26.77;;;11.90;;
34497;SDS011;20744;50.938;7.286;2023-03-01T08:34:18;24.10;;;11.80;;
34497;SDS011;20744;50.938;7.286;2023-03-01T08:36:45;23.10;;;10.52;;
34497;SDS011;20744;50.938;7.286;2023-03-01T08:39:14;16.30;;;10.55;;
34497;SDS011;20744;50.938;7.286;2023-03-01T08:41:41;17.85;;;9.63;;
34497;SDS011;20744;50.938;7.286;2023-03-01T08:44:09;26.38;;;10.63;;
34497;SDS011;20744;50.938;7.286;2023-03-01T08:46:38;15.88;;;9.88;;
34497;SDS011;20744;50.938;7.286;2023-03-01T08:49:06;19.00;;;10.57;;
34497;SDS011;20744;50.938;7.286;2023-03-01T08:51:34;20.13;;;10.02;;
34497;SDS011;20744;50.938;7.286;2023-03-01T08:54:02;29.23;;;10.75;;
34497;SDS011;20744;50.938;7.286;2023-03-01T08:56:30;21.77;;;10.77;;
34497;SDS011;20744;50.938;7.286;2023-03-01T08:58:57;17.70;;;10.75;;
34497;SDS011;20744;50.938;7.286;2023-03-01T09:01:24;16.33;;;10.15;;
34497;SDS011;20744;50.938;7.286;2023-03-01T09:03:53;20.90;;;10.82;;
34497;SDS011;20744;50.938;7.286;2023-03-01T09:06:20;18.33;;;10.15;;
34497;SDS011;20744;50.938;7.286;2023-03-01T09:08:48;16.73;;;9.93;;
34497;SDS011;20744;50.938;7.286;2023-03-01T09:11:16;18.77;;;9.90;;
34497;SDS011;20744;50.938;7.286;2023-03-01T09:13:43;15.48;;;9.80;;
34497;SDS011;20744;50.938;7.286;2023-03-01T09:16:11;18.00;;;9.70;;
34497;SDS011;20744;50.938;7.286;2023-03-01T09:18:40;17.77;;;9.50;;
34497;SDS011;20744;50.938;7.286;2023-03-01T09:21:09;16.15;;;9.20;;
34497;SDS011;20744;50.938;7.286;2023-03-01T09:23:37;18.40;;;9.82;;
34497;SDS011;20744;50.938;7.286;2023-03-01T09:26:05;13.73;;;9.05;;
34497;SDS011;20744;50.938;7.286;2023-03-01T09:28:33;14.93;;;9.38;;
34497;SDS011;20744;50.938;7.286;2023-03-01T09:31:01;14.38;;;9.43;;
34497;SDS011;20744;50.938;7.286;2023-03-01T09:33:28;16.13;;;9.25;;
34497;SDS011;20744;50.938;7.286;2023-03-01T09:35:57;16.10;;;9.02;;
34497;SDS011;20744;50.938;7.286;2023-03-01T09:38:25;14.70;;;8.65;;
34497;SDS011;20744;50.938;7.286;2023-03-01T09:40:53;15.35;;;9.00;;
34497;SDS011;20744;50.938;7.286;2023-03-01T09:43:21;14.18;;;8.98;;
34497;SDS011;20744;50.938;7.286;2023-03-01T09:45:50;15.68;;;8.23;;
34497;SDS011;20744;50.938;7.286;2023-03-01T09:48:21;15.70;;;8.75;;
34497;SDS011;20744;50.938;7.286;2023-03-01T09:50:50;15.25;;;8.85;;
34497;SDS011;20744;50.938;7.286;2023-03-01T09:53:18;14.65;;;8.68;;
34497;SDS011;20744;50.938;7.286;2023-03-01T09:55:50;13.88;;;8.30;;
34497;SDS011;20744;50.938;7.286;2023-03-01T09:58:26;17.65;;;8.77;;
34497;SDS011;20744;50.938;7.286;2023-03-01T10:00:56;14.27;;;7.97;;
34497;SDS011;20744;50.938;7.286;2023-03-01T10:03:25;15.63;;;8.70;;
34497;SDS011;20744;50.938;7.286;2023-03-01T10:05:56;15.18;;;8.73;;
34497;SDS011;20744;50.938;7.286;2023-03-01T10:08:29;13.20;;;8.65;;
34497;SDS011;20744;50.938;7.286;2023-03-01T10:11:02;12.85;;;8.43;;
34497;SDS011;20744;50.938;7.286;2023-03-01T10:13:33;15.30;;;8.32;;
34497;SDS011;20744;50.938;7.286;2023-03-01T10:16:01;14.50;;;8.38;;
34497;SDS011;20744;50.938;7.286;2023-03-01T10:18:31;11.70;;;7.82;;
34497;SDS011;20744;50.938;7.286;2023-03-01T10:21:02;13.50;;;8.38;;
34497;SDS011;20744;50.938;7.286;2023-03-01T10:23:30;15.88;;;9.10;;
34497;SDS011;20744;50.938;7.286;2023-03-01T10:26:07;15.52;;;8.48;;
34497;SDS011;20744;50.938;7.286;2023-03-01T10:28:40;12.70;;;7.70;;
34497;SDS011;20744;50.938;7.286;2023-03-01T10:31:12;12.90;;;8.55;;
34497;SDS011;20744;50.938;7.286;2023-03-01T10:33:40;14.55;;;8.45;;
34497;SDS011;20744;50.938;7.286;2023-03-01T10:36:08;13.95;;;8.35;;
34497;SDS011;20744;50.938;7.286;2023-03-01T10:38:47;13.30;;;8.18;;
34497;SDS011;20744;50.938;7.286;2023-03-01T10:41:15;12.02;;;8.25;;
34497;SDS011;20744;50.938;7.286;2023-03-01T10:43:43;11.95;;;7.43;;
34497;SDS011;20744;50.938;7.286;2023-03-01T10:46:21;15.10;;;8.18;;
34497;SDS011;20744;50.938;7.286;2023-03-01T10:48:55;16.75;;;8.02;;
34497;SDS011;20744;50.938;7.286;2023-03-01T10:51:32;12.43;;;8.00;;
34497;SDS011;20744;50.938;7.286;2023-03-01T10:53:59;14.32;;;8.05;;
34497;SDS011;20744;50.938;7.286;2023-03-01T10:56:28;13.25;;;7.53;;
34497;SDS011;20744;50.938;7.286;2023-03-01T10:58:59;11.68;;;7.05;;
34497;SDS011;20744;50.938;7.286;2023-03-01T11:01:28;11.50;;;7.13;;
34497;SDS011;20744;50.938;7.286;2023-03-01T11:04:09;12.65;;;8.20;;
34497;SDS011;20744;50.938;7.286;2023-03-01T11:06:37;12.63;;;7.80;;
34497;SDS011;20744;50.938;7.286;2023-03-01T11:09:13;13.90;;;8.68;;
34497;SDS011;20744;50.938;7.286;2023-03-01T11:11:42;14.70;;;7.78;;
34497;SDS011;20744;50.938;7.286;2023-03-01T11:14:13;14.10;;;8.00;;
34497;SDS011;20744;50.938;7.286;2023-03-01T11:16:43;15.95;;;7.95;;
34497;SDS011;20744;50.938;7.286;2023-03-01T11:19:15;12.13;;;7.55;;
34497;SDS011;20744;50.938;7.286;2023-03-01T11:21:43;12.27;;;7.88;;
34497;SDS011;20744;50.938;7.286;2023-03-01T11:24:15;12.20;;;7.45;;
34497;SDS011;20744;50.938;7.286;2023-03-01T11:26:44;14.80;;;7.28;;
34497;SDS011;20744;50.938;7.286;2023-03-01T11:29:15;12.77;;;7.78;;
34497;SDS011;20744;50.938;7.286;2023-03-01T11:31:45;12.57;;;7.65;;
34497;SDS011;20744;50.938;7.286;2023-03-01T11:34:13;11.70;;;7.18;;
34497;SDS011;20744;50.938;7.286;2023-03-01T11:36:44;13.30;;;7.28;;
34497;SDS011;20744;50.938;7.286;2023-03-01T11:39:17;12.75;;;7.20;;
34497;SDS011;20744;50.938;7.286;2023-03-01T11:41:48;12.23;;;7.45;;
34497;SDS011;20744;50.938;7.286;2023-03-01T11:44:18;12.93;;;7.05;;
34497;SDS011;20744;50.938;7.286;2023-03-01T11:46:50;12.02;;;6.45;;
34497;SDS011;20744;50.938;7.286;2023-03-01T11:52:02;9.80;;;6.53;;
34497;SDS011;20744;50.938;7.286;2023-03-01T11:54:35;11.68;;;6.70;;
34497;SDS011;20744;50.938;7.286;2023-03-01T11:57:07;11.40;;;6.32;;
34497;SDS011;20744;50.938;7.286;2023-03-01T11:59:45;10.20;;;6.80;;
34497;SDS011;20744;50.938;7.286;2023-03-01T12:02:34;10.63;;;6.35;;
34497;SDS011;20744;50.938;7.286;2023-03-01T12:05:20;10.18;;;6.47;;
34497;SDS011;20744;50.938;7.286;2023-03-01T12:07:52;10.18;;;6.18;;
34497;SDS011;20744;50.938;7.286;2023-03-01T12:10:22;11.80;;;6.10;;
34497;SDS011;20744;50.938;7.286;2023-03-01T12:12:58;11.23;;;6.85;;
34497;SDS011;20744;50.938;7.286;2023-03-01T12:15:32;10.77;;;6.90;;
34497;SDS011;20744;50.938;7.286;2023-03-01T12:18:10;9.55;;;6.35;;
34497;SDS011;20744;50.938;7.286;2023-03-01T12:20:41;10.50;;;6.07;;
34497;SDS011;20744;50.938;7.286;2023-03-01T12:23:25;10.77;;;6.20;;
34497;SDS011;20744;50.938;7.286;2023-03-01T12:25:58;10.07;;;6.07;;
34497;SDS011;20744;50.938;7.286;2023-03-01T12:28:35;10.43;;;6.20;;
34497;SDS011;20744;50.938;7.286;2023-03-01T12:31:08;13.10;;;6.72;;
34497;SDS011;20744;50.938;7.286;2023-03-01T12:33:41;8.88;;;5.90;;
34497;SDS011;20744;50.938;7.286;2023-03-01T12:36:15;12.35;;;5.72;;
34497;SDS011;20744;50.938;7.286;2023-03-01T12:38:48;10.65;;;5.97;;
34497;SDS011;20744;50.938;7.286;2023-03-01T12:41:21;11.23;;;5.72;;
34497;SDS011;20744;50.938;7.286;2023-03-01T12:43:58;9.65;;;5.20;;
34497;SDS011;20744;50.938;7.286;2023-03-01T12:46:34;8.30;;;5.40;;
34497;SDS011;20744;50.938;7.286;2023-03-01T12:49:05;9.93;;;5.78;;
34497;SDS011;20744;50.938;7.286;2023-03-01T12:51:34;12.57;;;5.88;;
34497;SDS011;20744;50.938;7.286;2023-03-01T12:54:04;10.57;;;5.15;;
34497;SDS011;20744;50.938;7.286;2023-03-01T12:56:34;8.68;;;4.90;;
34497;SDS011;20744;50.938;7.286;2023-03-01T12:59:08;9.38;;;5.25;;
34497;SDS011;20744;50.938;7.286;2023-03-01T13:01:40;9.93;;;5.47;;
34497;SDS011;20744;50.938;7.286;2023-03-01T13:04:22;8.05;;;5.22;;
34497;SDS011;20744;50.938;7.286;2023-03-01T13:06:58;9.38;;;5.50;;
34497;SDS011;20744;50.938;7.286;2023-03-01T13:09:28;9.27;;;5.32;;
34497;SDS011;20744;50.938;7.286;2023-03-01T13:11:56;10.25;;;4.93;;
34497;SDS011;20744;50.938;7.286;2023-03-01T13:14:37;7.57;;;4.70;;
34497;SDS011;20744;50.938;7.286;2023-03-01T13:20:02;8.68;;;4.60;;
34497;SDS011;20744;50.938;7.286;2023-03-01T13:22:30;8.65;;;5.15;;
34497;SDS011;20744;50.938;7.286;2023-03-01T13:25:02;10.43;;;5.43;;
34497;SDS011;20744;50.938;7.286;2023-03-01T13:27:30;9.82;;;4.68;;
34497;SDS011;20744;50.938;7.286;2023-03-01T13:29:59;8.20;;;4.32;;
34497;SDS011;20744;50.938;7.286;2023-03-01T13:32:30;7.88;;;4.57;;
34497;SDS011;20744;50.938;7.286;2023-03-01T13:34:59;7.32;;;4.40;;
34497;SDS011;20744;50.938;7.286;2023-03-01T13:37:27;11.82;;;4.10;;
34497;SDS011;20744;50.938;7.286;2023-03-01T13:39:56;6.40;;;3.80;;
34497;SDS011;20744;50.938;7.286;2023-03-01T13:45:22;8.52;;;4.25;;
34497;SDS011;20744;50.938;7.286;2023-03-01T13:47:53;5.50;;;3.55;;
34497;SDS011;20744;50.938;7.286;2023-03-01T13:50:24;5.97;;;3.53;;
34497;SDS011;20744;50.938;7.286;2023-03-01T13:52:53;6.70;;;3.72;;
34497;SDS011;20744;50.938;7.286;2023-03-01T13:55:23;7.15;;;4.68;;
34497;SDS011;20744;50.938;7.286;2023-03-01T13:57:53;10.27;;;6.30;;
34497;SDS011;20744;50.938;7.286;2023-03-01T14:00:28;7.80;;;5.65;;
34497;SDS011;20744;50.938;7.286;2023-03-01T14:03:00;10.38;;;5.63;;
34497;SDS011;20744;50.938;7.286;2023-03-01T14:05:28;8.27;;;5.60;;
34497;SDS011;20744;50.938;7.286;2023-03-01T14:07:56;8.75;;;5.80;;
34497;SDS011;20744;50.938;7.286;2023-03-01T14:10:24;10.40;;;5.90;;
34497;SDS011;20744;50.938;7.286;2023-03-01T14:12:54;9.38;;;6.20;;
34497;SDS011;20744;50.938;7.286;2023-03-01T14:15:25;12.18;;;5.85;;
34497;SDS011;20744;50.938;7.286;2023-03-01T14:18:00;8.43;;;5.60;;
34497;SDS011;20744;50.938;7.286;2023-03-01T14:20:30;13.10;;;5.82;;
34497;SDS011;20744;50.938;7.286;2023-03-01T14:23:01;10.73;;;5.13;;
34497;SDS011;20744;50.938;7.286;2023-03-01T14:25:29;8.35;;;5.45;;
34497;SDS011;20744;50.938;7.286;2023-03-01T14:27:59;8.07;;;5.40;;
34497;SDS011;20744;50.938;7.286;2023-03-01T14:30:27;8.85;;;5.07;;
34497;SDS011;20744;50.938;7.286;2023-03-01T14:32:58;7.90;;;5.15;;
34497;SDS011;20744;50.938;7.286;2023-03-01T14:35:27;8.18;;;4.65;;
34497;SDS011;20744;50.938;7.286;2023-03-01T14:37:54;9.80;;;5.38;;
34497;SDS011;20744;50.938;7.286;2023-03-01T14:40:27;11.07;;;5.35;;
34497;SDS011;20744;50.938;7.286;2023-03-01T14:42:55;9.05;;;4.60;;
34497;SDS011;20744;50.938;7.286;2023-03-01T14:45:24;7.63;;;4.75;;
34497;SDS011;20744;50.938;7.286;2023-03-01T14:47:52;9.75;;;4.43;;
34497;SDS011;20744;50.938;7.286;2023-03-01T14:50:22;8.80;;;4.85;;